sensor_id;sensor_type;location;lat;lon;timestamp;pressure;altitude;pressure_sealevel;temperature;humidity
57232;BME280;43488;46.934;8.276;2023-02-12T00:01:16;98330.50;;;0.94;73.77
57232;BME280;43488;46.934;8.276;2023-02-12T00:03:45;98337.66;;;0.91;74.04
57232;BME280;43488;46.934;8.276;2023-02-12T00:06:12;98329.88;;;0.91;73.73
57232;BME280;43488;46.934;8.276;2023-02-12T00:08:40;98333.41;;;0.90;73.50
57232;BME280;43488;46.934;8.276;2023-02-12T00:11:14;98327.28;;;0.78;73.57
57232;BME280;43488;46.934;8.276;2023-02-12T00:13:42;98335.75;;;0.67;74.43
57232;BME280;43488;46.934;8.276;2023-02-12T00:16:14;98339.06;;;0.56;74.67
57232;BME280;43488;46.934;8.276;2023-02-12T00:18:43;98326.38;;;0.52;75.72
57232;BME280;43488;46.934;8.276;2023-02-12T00:21:11;98331.28;;;0.56;75.44
57232;BME280;43488;46.934;8.276;2023-02-12T00:23:40;98318.84;;;0.62;75.63
57232;BME280;43488;46.934;8.276;2023-02-12T00:26:10;98327.25;;;0.65;76.81
57232;BME280;43488;46.934;8.276;2023-02-12T00:28:38;98323.63;;;0.68;76.87
57232;BME280;43488;46.934;8.276;2023-02-12T00:31:10;98315.75;;;0.69;76.61
57232;BME280;43488;46.934;8.276;2023-02-12T00:33:38;98322.47;;;0.72;76.99
57232;BME280;43488;46.934;8.276;2023-02-12T00:36:06;98321.75;;;0.70;77.34
57232;BME280;43488;46.934;8.276;2023-02-12T00:38:33;98318.66;;;0.65;78.57
57232;BME280;43488;46.934;8.276;2023-02-12T00:41:01;98319.25;;;0.55;78.80
57232;BME280;43488;46.934;8.276;2023-02-12T00:43:29;98319.44;;;0.52;78.05
57232;BME280;43488;46.934;8.276;2023-02-12T00:45:56;98316.97;;;0.51;77.51
57232;BME280;43488;46.934;8.276;2023-02-12T00:48:23;98305.97;;;0.47;77.74
57232;BME280;43488;46.934;8.276;2023-02-12T00:50:51;98306.97;;;0.45;77.28
57232;BME280;43488;46.934;8.276;2023-02-12T00:53:18;98305.97;;;0.47;77.02
57232;BME280;43488;46.934;8.276;2023-02-12T00:55:46;98303.06;;;0.39;77.02
57232;BME280;43488;46.934;8.276;2023-02-12T00:58:13;98301.56;;;0.35;76.93
57232;BME280;43488;46.934;8.276;2023-02-12T01:00:43;98295.78;;;0.32;77.36
57232;BME280;43488;46.934;8.276;2023-02-12T01:03:10;98291.41;;;0.32;77.50
57232;BME280;43488;46.934;8.276;2023-02-12T01:05:38;98290.47;;;0.33;77.32
57232;BME280;43488;46.934;8.276;2023-02-12T01:08:05;98283.84;;;0.29;77.39
57232;BME280;43488;46.934;8.276;2023-02-12T01:10:33;98279.69;;;0.26;78.49
57232;BME280;43488;46.934;8.276;2023-02-12T01:13:01;98283.31;;;0.24;78.85
57232;BME280;43488;46.934;8.276;2023-02-12T01:15:28;98294.22;;;0.29;78.55
57232;BME280;43488;46.934;8.276;2023-02-12T01:17:55;98289.03;;;0.29;78.97
57232;BME280;43488;46.934;8.276;2023-02-12T01:20:23;98292.34;;;0.31;79.04
57232;BME280;43488;46.934;8.276;2023-02-12T01:22:51;98299.28;;;0.31;78.89
57232;BME280;43488;46.934;8.276;2023-02-12T01:25:18;98291.41;;;0.32;79.69
57232;BME280;43488;46.934;8.276;2023-02-12T01:27:45;98290.56;;;0.19;78.41
57232;BME280;43488;46.934;8.276;2023-02-12T01:30:13;98291.41;;;0.19;78.05
57232;BME280;43488;46.934;8.276;2023-02-12T01:32:41;98294.59;;;0.23;77.84
57232;BME280;43488;46.934;8.276;2023-02-12T01:35:08;98293.88;;;0.21;78.14
57232;BME280;43488;46.934;8.276;2023-02-12T01:37:36;98290.34;;;0.09;78.07
57232;BME280;43488;46.934;8.276;2023-02-12T01:40:04;98298.41;;;0.17;79.31
57232;BME280;43488;46.934;8.276;2023-02-12T01:42:33;98302.63;;;0.06;79.38
57232;BME280;43488;46.934;8.276;2023-02-12T01:47:42;98300.75;;;0.08;78.68
57232;BME280;43488;46.934;8.276;2023-02-12T01:50:12;98301.31;;;0.13;79.12
57232;BME280;43488;46.934;8.276;2023-02-12T01:52:43;98292.72;;;0.12;78.43
57232;BME280;43488;46.934;8.276;2023-02-12T01:55:12;98290.94;;;0.13;78.08
57232;BME280;43488;46.934;8.276;2023-02-12T01:57:42;98288.63;;;0.08;78.43
57232;BME280;43488;46.934;8.276;2023-02-12T02:00:14;98290.91;;;0.00;79.48
57232;BME280;43488;46.934;8.276;2023-02-12T02:02:42;98294.84;;;0.06;78.74
57232;BME280;43488;46.934;8.276;2023-02-12T02:05:12;98286.94;;;-0.06;78.87
57232;BME280;43488;46.934;8.276;2023-02-12T02:07:42;98295.25;;;-0.01;78.64
57232;BME280;43488;46.934;8.276;2023-02-12T02:10:09;98296.47;;;-0.06;78.24
57232;BME280;43488;46.934;8.276;2023-02-12T02:12:36;98295.66;;;-0.07;78.62
57232;BME280;43488;46.934;8.276;2023-02-12T02:15:23;98280.94;;;-0.06;79.45
57232;BME280;43488;46.934;8.276;2023-02-12T02:18:01;98285.91;;;-0.03;78.70
57232;BME280;43488;46.934;8.276;2023-02-12T02:29:43;98292.13;;;-0.06;77.99
57232;BME280;43488;46.934;8.276;2023-02-12T02:32:20;98305.28;;;-0.09;77.46
57232;BME280;43488;46.934;8.276;2023-02-12T02:35:14;98294.81;;;-0.07;77.87
57232;BME280;43488;46.934;8.276;2023-02-12T02:45:33;98289.53;;;-0.06;77.97
57232;BME280;43488;46.934;8.276;2023-02-12T02:48:31;98293.69;;;-0.03;77.47
57232;BME280;43488;46.934;8.276;2023-02-12T02:51:18;98280.84;;;-0.05;76.62
57232;BME280;43488;46.934;8.276;2023-02-12T02:53:50;98278.44;;;-0.08;76.48
57232;BME280;43488;46.934;8.276;2023-02-12T02:56:20;98270.03;;;-0.11;77.00
57232;BME280;43488;46.934;8.276;2023-02-12T02:58:55;98275.16;;;-0.24;77.40
57232;BME280;43488;46.934;8.276;2023-02-12T03:01:38;98272.03;;;-0.29;79.03
57232;BME280;43488;46.934;8.276;2023-02-12T03:04:22;98267.41;;;-0.24;79.98
57232;BME280;43488;46.934;8.276;2023-02-12T03:06:59;98271.44;;;-0.20;80.40
57232;BME280;43488;46.934;8.276;2023-02-12T03:09:33;98265.66;;;-0.23;81.56
57232;BME280;43488;46.934;8.276;2023-02-12T03:12:08;98266.28;;;-0.20;81.92
57232;BME280;43488;46.934;8.276;2023-02-12T03:14:41;98263.16;;;-0.25;82.82
57232;BME280;43488;46.934;8.276;2023-02-12T03:17:31;98264.91;;;-0.25;82.18
57232;BME280;43488;46.934;8.276;2023-02-12T03:20:03;98261.09;;;-0.20;81.64
57232;BME280;43488;46.934;8.276;2023-02-12T03:22:35;98261.00;;;-0.18;80.58
57232;BME280;43488;46.934;8.276;2023-02-12T03:25:14;98257.53;;;-0.32;80.87
57232;BME280;43488;46.934;8.276;2023-02-12T03:27:48;98261.56;;;-0.28;80.68
57232;BME280;43488;46.934;8.276;2023-02-12T03:30:20;98272.50;;;-0.37;80.65
57232;BME280;43488;46.934;8.276;2023-02-12T03:33:24;98258.22;;;-0.42;80.61
57232;BME280;43488;46.934;8.276;2023-02-12T03:36:00;98261.91;;;-0.46;80.84
57232;BME280;43488;46.934;8.276;2023-02-12T03:38:36;98250.66;;;-0.45;81.05
57232;BME280;43488;46.934;8.276;2023-02-12T03:41:10;98251.53;;;-0.46;81.34
57232;BME280;43488;46.934;8.276;2023-02-12T03:43:50;98254.22;;;-0.48;81.67
57232;BME280;43488;46.934;8.276;2023-02-12T03:49:09;98256.28;;;-0.53;81.75
57232;BME280;43488;46.934;8.276;2023-02-12T03:51:42;98250.38;;;-0.55;81.76
57232;BME280;43488;46.934;8.276;2023-02-12T03:54:13;98249.47;;;-0.54;81.58
57232;BME280;43488;46.934;8.276;2023-02-12T03:56:45;98246.94;;;-0.55;81.92
57232;BME280;43488;46.934;8.276;2023-02-12T03:59:18;98243.88;;;-0.48;82.37
57232;BME280;43488;46.934;8.276;2023-02-12T04:01:47;98254.97;;;-0.46;82.24
57232;BME280;43488;46.934;8.276;2023-02-12T04:04:16;98251.50;;;-0.59;81.95
57232;BME280;43488;46.934;8.276;2023-02-12T04:06:44;98259.56;;;-0.64;81.80
57232;BME280;43488;46.934;8.276;2023-02-12T04:09:12;98257.03;;;-0.65;81.08
57232;BME280;43488;46.934;8.276;2023-02-12T04:12:24;98260.84;;;-0.71;80.94
57232;BME280;43488;46.934;8.276;2023-02-12T04:17:49;98255.56;;;-0.69;80.55
57232;BME280;43488;46.934;8.276;2023-02-12T04:26:09;98258.91;;;-0.67;81.49
57232;BME280;43488;46.934;8.276;2023-02-12T04:29:07;98256.22;;;-0.66;81.27
57232;BME280;43488;46.934;8.276;2023-02-12T04:31:37;98254.38;;;-0.64;81.49
57232;BME280;43488;46.934;8.276;2023-02-12T04:34:14;98258.25;;;-0.71;81.34
57232;BME280;43488;46.934;8.276;2023-02-12T04:39:38;98262.59;;;-0.71;80.01
57232;BME280;43488;46.934;8.276;2023-02-12T04:42:07;98265.81;;;-0.68;80.58
57232;BME280;43488;46.934;8.276;2023-02-12T04:44:37;98267.88;;;-0.87;81.66
57232;BME280;43488;46.934;8.276;2023-02-12T04:47:04;98267.25;;;-0.91;82.46
57232;BME280;43488;46.934;8.276;2023-02-12T04:49:31;98263.53;;;-0.87;82.09
57232;BME280;43488;46.934;8.276;2023-02-12T04:51:58;98269.72;;;-0.89;81.60
57232;BME280;43488;46.934;8.276;2023-02-12T04:54:26;98270.56;;;-0.89;80.81
57232;BME280;43488;46.934;8.276;2023-02-12T04:56:53;98262.44;;;-0.97;81.44
57232;BME280;43488;46.934;8.276;2023-02-12T04:59:20;98270.47;;;-0.87;81.05
57232;BME280;43488;46.934;8.276;2023-02-12T05:01:48;98263.28;;;-0.82;82.58
57232;BME280;43488;46.934;8.276;2023-02-12T05:04:16;98273.31;;;-0.77;82.28
57232;BME280;43488;46.934;8.276;2023-02-12T05:06:45;98269.34;;;-0.83;81.22
57232;BME280;43488;46.934;8.276;2023-02-12T05:09:15;98276.19;;;-0.82;81.31
57232;BME280;43488;46.934;8.276;2023-02-12T05:11:43;98281.19;;;-0.79;81.13
57232;BME280;43488;46.934;8.276;2023-02-12T05:14:11;98275.16;;;-0.79;80.04
57232;BME280;43488;46.934;8.276;2023-02-12T05:16:38;98277.66;;;-0.78;79.63
57232;BME280;43488;46.934;8.276;2023-02-12T05:19:05;98272.22;;;-0.88;79.71
57232;BME280;43488;46.934;8.276;2023-02-12T05:21:32;98279.69;;;-0.83;79.60
57232;BME280;43488;46.934;8.276;2023-02-12T05:24:01;98279.16;;;-0.88;79.50
57232;BME280;43488;46.934;8.276;2023-02-12T05:26:29;98278.84;;;-0.83;80.21
57232;BME280;43488;46.934;8.276;2023-02-12T05:28:57;98282.09;;;-0.80;80.70
57232;BME280;43488;46.934;8.276;2023-02-12T05:31:25;98282.19;;;-0.81;81.30
57232;BME280;43488;46.934;8.276;2023-02-12T05:33:52;98287.81;;;-0.75;81.40
57232;BME280;43488;46.934;8.276;2023-02-12T05:36:21;98285.63;;;-0.81;80.33
57232;BME280;43488;46.934;8.276;2023-02-12T05:38:50;98288.75;;;-0.90;80.06
57232;BME280;43488;46.934;8.276;2023-02-12T05:41:19;98293.56;;;-0.98;79.52
57232;BME280;43488;46.934;8.276;2023-02-12T05:43:47;98293.72;;;-1.01;79.33
57232;BME280;43488;46.934;8.276;2023-02-12T05:46:14;98290.78;;;-0.95;79.69
57232;BME280;43488;46.934;8.276;2023-02-12T05:48:45;98291.59;;;-0.95;80.89
57232;BME280;43488;46.934;8.276;2023-02-12T05:51:15;98285.34;;;-0.91;80.78
57232;BME280;43488;46.934;8.276;2023-02-12T05:53:43;98285.41;;;-0.92;81.67
57232;BME280;43488;46.934;8.276;2023-02-12T05:58:40;98294.75;;;-0.90;82.63
57232;BME280;43488;46.934;8.276;2023-02-12T06:01:19;98297.88;;;-0.84;82.91
57232;BME280;43488;46.934;8.276;2023-02-12T06:03:46;98300.38;;;-0.83;82.34
57232;BME280;43488;46.934;8.276;2023-02-12T06:06:13;98299.84;;;-0.88;81.64
57232;BME280;43488;46.934;8.276;2023-02-12T06:08:41;98303.88;;;-0.84;81.96
57232;BME280;43488;46.934;8.276;2023-02-12T06:11:12;98316.06;;;-0.86;81.85
57232;BME280;43488;46.934;8.276;2023-02-12T06:13:39;98308.88;;;-0.95;81.07
57232;BME280;43488;46.934;8.276;2023-02-12T06:16:06;98324.06;;;-1.19;81.34
57232;BME280;43488;46.934;8.276;2023-02-12T06:18:34;98310.31;;;-1.20;83.83
57232;BME280;43488;46.934;8.276;2023-02-12T06:21:03;98313.66;;;-1.18;84.52
57232;BME280;43488;46.934;8.276;2023-02-12T06:23:30;98314.22;;;-1.12;85.71
57232;BME280;43488;46.934;8.276;2023-02-12T06:25:57;98313.28;;;-1.11;86.25
57232;BME280;43488;46.934;8.276;2023-02-12T06:28:24;98312.75;;;-1.17;86.13
57232;BME280;43488;46.934;8.276;2023-02-12T06:30:52;98306.75;;;-1.17;85.83
57232;BME280;43488;46.934;8.276;2023-02-12T06:33:19;98308.75;;;-1.22;86.01
57232;BME280;43488;46.934;8.276;2023-02-12T06:35:46;98301.72;;;-1.20;86.04
57232;BME280;43488;46.934;8.276;2023-02-12T06:38:13;98304.25;;;-1.19;85.66
57232;BME280;43488;46.934;8.276;2023-02-12T06:40:40;98302.75;;;-1.23;85.40
57232;BME280;43488;46.934;8.276;2023-02-12T06:43:07;98318.25;;;-1.23;86.03
57232;BME280;43488;46.934;8.276;2023-02-12T06:45:34;98312.25;;;-1.23;86.60
57232;BME280;43488;46.934;8.276;2023-02-12T06:48:02;98311.91;;;-1.17;85.88
57232;BME280;43488;46.934;8.276;2023-02-12T06:50:29;98309.78;;;-1.25;85.44
57232;BME280;43488;46.934;8.276;2023-02-12T06:52:57;98306.91;;;-1.20;85.63
57232;BME280;43488;46.934;8.276;2023-02-12T06:55:24;98312.75;;;-1.17;85.39
57232;BME280;43488;46.934;8.276;2023-02-12T06:57:52;98305.09;;;-1.18;85.25
57232;BME280;43488;46.934;8.276;2023-02-12T07:00:21;98314.41;;;-1.16;85.52
57232;BME280;43488;46.934;8.276;2023-02-12T07:02:54;98309.59;;;-1.07;85.83
57232;BME280;43488;46.934;8.276;2023-02-12T07:05:22;98317.16;;;-1.04;85.81
57232;BME280;43488;46.934;8.276;2023-02-12T07:07:49;98310.00;;;-0.99;85.54
57232;BME280;43488;46.934;8.276;2023-02-12T07:10:16;98301.03;;;-0.94;85.20
57232;BME280;43488;46.934;8.276;2023-02-12T07:12:44;98306.56;;;-0.86;85.65
57232;BME280;43488;46.934;8.276;2023-02-12T07:15:11;98303.88;;;-0.84;85.63
57232;BME280;43488;46.934;8.276;2023-02-12T07:17:38;98296.50;;;-0.76;85.46
57232;BME280;43488;46.934;8.276;2023-02-12T07:20:05;98293.53;;;-0.70;85.38
57232;BME280;43488;46.934;8.276;2023-02-12T07:22:35;98299.00;;;-0.60;84.84
57232;BME280;43488;46.934;8.276;2023-02-12T07:25:02;98300.53;;;-0.58;85.14
57232;BME280;43488;46.934;8.276;2023-02-12T07:27:54;98288.34;;;-0.55;85.30
57232;BME280;43488;46.934;8.276;2023-02-12T07:30:21;98283.81;;;-0.52;85.70
57232;BME280;43488;46.934;8.276;2023-02-12T07:32:49;98280.22;;;-0.49;85.52
57232;BME280;43488;46.934;8.276;2023-02-12T07:35:16;98283.72;;;-0.50;85.99
57232;BME280;43488;46.934;8.276;2023-02-12T07:37:43;98286.88;;;-0.45;86.27
57232;BME280;43488;46.934;8.276;2023-02-12T07:40:10;98273.44;;;-0.38;86.78
57232;BME280;43488;46.934;8.276;2023-02-12T07:42:38;98285.91;;;-0.30;86.47
57232;BME280;43488;46.934;8.276;2023-02-12T07:45:07;98287.75;;;-0.32;85.46
57232;BME280;43488;46.934;8.276;2023-02-12T07:47:34;98292.38;;;-0.37;85.28
57232;BME280;43488;46.934;8.276;2023-02-12T07:50:05;98291.75;;;-0.41;85.12
57232;BME280;43488;46.934;8.276;2023-02-12T07:52:34;98288.53;;;-0.44;85.43
57232;BME280;43488;46.934;8.276;2023-02-12T07:55:01;98286.78;;;-0.44;85.34
57232;BME280;43488;46.934;8.276;2023-02-12T07:57:28;98286.56;;;-0.41;84.84
57232;BME280;43488;46.934;8.276;2023-02-12T07:59:55;98284.13;;;-0.30;84.92
57232;BME280;43488;46.934;8.276;2023-02-12T08:02:22;98281.28;;;-0.25;84.27
57232;BME280;43488;46.934;8.276;2023-02-12T08:04:57;98278.38;;;-0.20;84.74
57232;BME280;43488;46.934;8.276;2023-02-12T08:07:24;98281.97;;;-0.09;85.01
57232;BME280;43488;46.934;8.276;2023-02-12T08:09:52;98287.56;;;-0.02;84.82
57232;BME280;43488;46.934;8.276;2023-02-12T08:12:23;98280.81;;;0.10;84.58
57232;BME280;43488;46.934;8.276;2023-02-12T08:14:50;98282.38;;;0.25;83.65
57232;BME280;43488;46.934;8.276;2023-02-12T08:17:17;98283.25;;;0.38;83.55
57232;BME280;43488;46.934;8.276;2023-02-12T08:19:44;98284.41;;;0.47;83.20
57232;BME280;43488;46.934;8.276;2023-02-12T08:22:11;98287.13;;;0.58;83.57
57232;BME280;43488;46.934;8.276;2023-02-12T08:24:39;98288.47;;;0.64;83.54
57232;BME280;43488;46.934;8.276;2023-02-12T08:27:06;98282.78;;;0.71;84.33
57232;BME280;43488;46.934;8.276;2023-02-12T08:29:33;98282.81;;;0.84;84.27
57232;BME280;43488;46.934;8.276;2023-02-12T08:32:02;98287.75;;;1.00;83.93
57232;BME280;43488;46.934;8.276;2023-02-12T08:34:32;98282.34;;;1.16;84.04
57232;BME280;43488;46.934;8.276;2023-02-12T08:37:00;98295.41;;;1.27;83.44
57232;BME280;43488;46.934;8.276;2023-02-12T08:39:30;98292.19;;;1.36;83.11
57232;BME280;43488;46.934;8.276;2023-02-12T08:41:58;98297.28;;;1.50;83.04
57232;BME280;43488;46.934;8.276;2023-02-12T08:44:27;98292.78;;;1.65;82.95
57232;BME280;43488;46.934;8.276;2023-02-12T08:46:54;98291.28;;;1.74;82.36
57232;BME280;43488;46.934;8.276;2023-02-12T08:49:25;98297.75;;;1.92;81.88
57232;BME280;43488;46.934;8.276;2023-02-12T08:51:55;98291.00;;;2.02;80.93
57232;BME280;43488;46.934;8.276;2023-02-12T08:54:25;98284.38;;;2.09;79.43
57232;BME280;43488;46.934;8.276;2023-02-12T08:56:54;98288.59;;;2.23;79.42
57232;BME280;43488;46.934;8.276;2023-02-12T08:59:23;98288.53;;;2.36;78.74
57232;BME280;43488;46.934;8.276;2023-02-12T09:01:50;98288.56;;;2.47;77.26
57232;BME280;43488;46.934;8.276;2023-02-12T09:04:28;98288.63;;;2.58;76.86
57232;BME280;43488;46.934;8.276;2023-02-12T09:06:57;98296.09;;;2.74;76.28
57232;BME280;43488;46.934;8.276;2023-02-12T09:09:24;98295.31;;;2.84;76.10
57232;BME280;43488;46.934;8.276;2023-02-12T09:11:51;98287.75;;;2.93;76.34
57232;BME280;43488;46.934;8.276;2023-02-12T09:14:19;98289.53;;;3.03;75.72
57232;BME280;43488;46.934;8.276;2023-02-12T09:16:52;98280.41;;;3.09;76.14
57232;BME280;43488;46.934;8.276;2023-02-12T09:19:20;98286.69;;;3.18;76.75
57232;BME280;43488;46.934;8.276;2023-02-12T09:21:51;98291.69;;;3.32;75.13
57232;BME280;43488;46.934;8.276;2023-02-12T09:24:19;98288.25;;;3.42;75.06
57232;BME280;43488;46.934;8.276;2023-02-12T09:26:45;98287.31;;;3.43;74.66
57232;BME280;43488;46.934;8.276;2023-02-12T09:29:14;98283.25;;;3.62;73.83
57232;BME280;43488;46.934;8.276;2023-02-12T09:31:41;98286.88;;;3.82;73.12
57232;BME280;43488;46.934;8.276;2023-02-12T09:34:08;98280.72;;;3.94;72.35
57232;BME280;43488;46.934;8.276;2023-02-12T09:36:35;98283.75;;;4.10;73.11
57232;BME280;43488;46.934;8.276;2023-02-12T09:39:03;98279.06;;;4.25;73.17
57232;BME280;43488;46.934;8.276;2023-02-12T09:47:20;98274.16;;;4.64;71.61
57232;BME280;43488;46.934;8.276;2023-02-12T09:52:37;98276.13;;;4.92;71.09
57232;BME280;43488;46.934;8.276;2023-02-12T09:55:04;98275.09;;;5.04;70.20
57232;BME280;43488;46.934;8.276;2023-02-12T09:57:33;98273.41;;;5.24;69.76
57232;BME280;43488;46.934;8.276;2023-02-12T10:00:05;98267.22;;;5.25;68.98
57232;BME280;43488;46.934;8.276;2023-02-12T10:02:34;98265.88;;;5.31;68.92
57232;BME280;43488;46.934;8.276;2023-02-12T10:05:03;98266.78;;;5.51;67.85
57232;BME280;43488;46.934;8.276;2023-02-12T10:07:54;98261.63;;;5.70;66.83
57232;BME280;43488;46.934;8.276;2023-02-12T10:10:30;98266.19;;;5.78;67.34
57232;BME280;43488;46.934;8.276;2023-02-12T10:13:17;98264.78;;;5.83;66.32
57232;BME280;43488;46.934;8.276;2023-02-12T10:18:33;98261.19;;;6.24;64.91
57232;BME280;43488;46.934;8.276;2023-02-12T10:21:30;98258.69;;;6.42;64.18
57232;BME280;43488;46.934;8.276;2023-02-12T10:27:16;98248.34;;;6.70;62.31
57232;BME280;43488;46.934;8.276;2023-02-12T10:29:46;98247.91;;;6.74;61.95
57232;BME280;43488;46.934;8.276;2023-02-12T10:32:27;98242.25;;;6.89;61.14
57232;BME280;43488;46.934;8.276;2023-02-12T10:34:57;98240.91;;;7.12;60.21
57232;BME280;43488;46.934;8.276;2023-02-12T10:37:34;98231.28;;;7.40;59.93
57232;BME280;43488;46.934;8.276;2023-02-12T10:40:26;98232.91;;;7.51;57.96
57232;BME280;43488;46.934;8.276;2023-02-12T10:43:00;98229.00;;;7.82;57.67
57232;BME280;43488;46.934;8.276;2023-02-12T10:45:37;98227.44;;;8.07;57.25
57232;BME280;43488;46.934;8.276;2023-02-12T10:48:16;98224.69;;;8.26;55.30
57232;BME280;43488;46.934;8.276;2023-02-12T10:53:41;98217.34;;;8.48;53.24
57232;BME280;43488;46.934;8.276;2023-02-12T10:58:55;98214.31;;;8.87;51.97
57232;BME280;43488;46.934;8.276;2023-02-12T11:01:27;98212.66;;;9.11;52.96
57232;BME280;43488;46.934;8.276;2023-02-12T11:03:57;98205.44;;;9.13;50.63
57232;BME280;43488;46.934;8.276;2023-02-12T11:06:29;98209.13;;;9.29;49.40
57232;BME280;43488;46.934;8.276;2023-02-12T11:08:58;98205.41;;;9.39;49.29
57232;BME280;43488;46.934;8.276;2023-02-12T11:11:35;98196.44;;;9.66;48.87
57232;BME280;43488;46.934;8.276;2023-02-12T11:14:19;98192.53;;;9.71;49.06
57232;BME280;43488;46.934;8.276;2023-02-12T11:16:56;98189.75;;;9.96;47.91
57232;BME280;43488;46.934;8.276;2023-02-12T11:19:28;98184.34;;;10.14;47.40
57232;BME280;43488;46.934;8.276;2023-02-12T11:22:09;98183.75;;;10.37;46.22
57232;BME280;43488;46.934;8.276;2023-02-12T11:24:37;98176.50;;;10.55;45.51
57232;BME280;43488;46.934;8.276;2023-02-12T11:29:44;98178.97;;;10.40;45.70
57232;BME280;43488;46.934;8.276;2023-02-12T11:32:18;98170.22;;;10.80;44.95
57232;BME280;43488;46.934;8.276;2023-02-12T11:37:42;98153.69;;;11.03;43.74
57232;BME280;43488;46.934;8.276;2023-02-12T11:40:26;98147.25;;;11.45;43.12
57232;BME280;43488;46.934;8.276;2023-02-12T11:42:59;98141.53;;;11.64;42.47
57232;BME280;43488;46.934;8.276;2023-02-12T11:45:44;98143.59;;;11.77;42.87
57232;BME280;43488;46.934;8.276;2023-02-12T11:48:37;98146.00;;;11.63;41.95
57232;BME280;43488;46.934;8.276;2023-02-12T11:51:08;98143.66;;;11.37;42.89
57232;BME280;43488;46.934;8.276;2023-02-12T11:53:49;98131.22;;;11.77;42.66
57232;BME280;43488;46.934;8.276;2023-02-12T11:56:17;98137.91;;;12.34;41.14
57232;BME280;43488;46.934;8.276;2023-02-12T11:58:47;98136.00;;;13.24;38.69
57232;BME280;43488;46.934;8.276;2023-02-12T12:01:29;98126.22;;;14.68;36.64
57232;BME280;43488;46.934;8.276;2023-02-12T12:04:07;98130.28;;;16.54;33.33
57232;BME280;43488;46.934;8.276;2023-02-12T12:07:10;98126.03;;;18.63;30.12
57232;BME280;43488;46.934;8.276;2023-02-12T12:12:57;98126.53;;;22.55;24.81
57232;BME280;43488;46.934;8.276;2023-02-12T12:15:29;98122.34;;;23.80;22.92
57232;BME280;43488;46.934;8.276;2023-02-12T12:18:55;98116.94;;;23.58;22.40
57232;BME280;43488;46.934;8.276;2023-02-12T12:22:16;98119.78;;;22.69;23.26
57232;BME280;43488;46.934;8.276;2023-02-12T12:30:58;98106.53;;;22.96;22.09
57232;BME280;43488;46.934;8.276;2023-02-12T12:33:45;98107.88;;;24.82;21.10
57232;BME280;43488;46.934;8.276;2023-02-12T12:48:19;98096.56;;;28.01;17.57
57232;BME280;43488;46.934;8.276;2023-02-12T12:54:04;98095.06;;;28.82;16.15
57232;BME280;43488;46.934;8.276;2023-02-12T12:57:14;98091.50;;;28.23;16.83
57232;BME280;43488;46.934;8.276;2023-02-12T13:00:22;98084.69;;;29.18;16.24
57232;BME280;43488;46.934;8.276;2023-02-12T13:12:19;98080.81;;;27.59;17.33
57232;BME280;43488;46.934;8.276;2023-02-12T13:21:48;98081.81;;;28.17;16.07
57232;BME280;43488;46.934;8.276;2023-02-12T13:24:31;98083.16;;;27.21;17.18
57232;BME280;43488;46.934;8.276;2023-02-12T13:27:05;98077.22;;;29.90;15.04
57232;BME280;43488;46.934;8.276;2023-02-12T13:29:45;98075.44;;;30.83;14.27
57232;BME280;43488;46.934;8.276;2023-02-12T13:32:25;98086.81;;;29.64;15.28
57232;BME280;43488;46.934;8.276;2023-02-12T13:34:55;98071.72;;;30.61;14.24
57232;BME280;43488;46.934;8.276;2023-02-12T13:37:40;98073.72;;;31.01;14.03
57232;BME280;43488;46.934;8.276;2023-02-12T13:40:30;98073.63;;;30.46;14.51
57232;BME280;43488;46.934;8.276;2023-02-12T13:49:23;98080.56;;;28.97;16.15
57232;BME280;43488;46.934;8.276;2023-02-12T13:52:13;98085.09;;;31.03;14.14
57232;BME280;43488;46.934;8.276;2023-02-12T13:55:24;98082.78;;;30.50;14.51
57232;BME280;43488;46.934;8.276;2023-02-12T14:01:43;98071.41;;;30.48;14.44
57232;BME280;43488;46.934;8.276;2023-02-12T14:04:23;98079.94;;;30.88;14.30
57232;BME280;43488;46.934;8.276;2023-02-12T14:07:07;98079.72;;;31.53;14.42
57232;BME280;43488;46.934;8.276;2023-02-12T14:09:43;98086.50;;;29.23;15.00
57232;BME280;43488;46.934;8.276;2023-02-12T14:12:40;98085.25;;;30.33;14.62
57232;BME280;43488;46.934;8.276;2023-02-12T14:15:32;98082.78;;;31.10;14.43
57232;BME280;43488;46.934;8.276;2023-02-12T14:18:20;98078.94;;;31.53;14.15
57232;BME280;43488;46.934;8.276;2023-02-12T14:23:41;98080.56;;;31.12;13.84
57232;BME280;43488;46.934;8.276;2023-02-12T14:26:19;98082.44;;;30.71;14.55
57232;BME280;43488;46.934;8.276;2023-02-12T14:29:03;98085.78;;;30.81;14.36
57232;BME280;43488;46.934;8.276;2023-02-12T14:31:37;98079.19;;;29.85;14.88
57232;BME280;43488;46.934;8.276;2023-02-12T14:39:26;98082.41;;;30.24;14.43
57232;BME280;43488;46.934;8.276;2023-02-12T14:47:14;98084.59;;;30.22;14.24
57232;BME280;43488;46.934;8.276;2023-02-12T14:50:17;98091.38;;;29.68;15.05
57232;BME280;43488;46.934;8.276;2023-02-12T14:52:52;98096.50;;;29.70;14.64
57232;BME280;43488;46.934;8.276;2023-02-12T14:55:32;98091.00;;;28.55;15.51
57232;BME280;43488;46.934;8.276;2023-02-12T14:58:05;98100.22;;;29.31;14.93
57232;BME280;43488;46.934;8.276;2023-02-12T15:00:40;98089.41;;;28.15;15.26
57232;BME280;43488;46.934;8.276;2023-02-12T15:05:49;98096.84;;;28.39;15.80
57232;BME280;43488;46.934;8.276;2023-02-12T15:08:44;98094.56;;;26.98;16.66
57232;BME280;43488;46.934;8.276;2023-02-12T15:11:44;98091.03;;;27.17;16.70
57232;BME280;43488;46.934;8.276;2023-02-12T15:14:30;98093.88;;;27.41;16.78
57232;BME280;43488;46.934;8.276;2023-02-12T15:17:13;98097.47;;;27.27;16.91
57232;BME280;43488;46.934;8.276;2023-02-12T15:20:07;98097.38;;;27.42;17.06
57232;BME280;43488;46.934;8.276;2023-02-12T15:22:40;98100.53;;;27.64;17.08
57232;BME280;43488;46.934;8.276;2023-02-12T15:25:29;98092.13;;;27.16;16.83
57232;BME280;43488;46.934;8.276;2023-02-12T15:28:05;98107.13;;;25.49;18.74
57232;BME280;43488;46.934;8.276;2023-02-12T15:30:42;98113.03;;;23.93;19.39
57232;BME280;43488;46.934;8.276;2023-02-12T15:33:26;98103.41;;;24.29;19.32
57232;BME280;43488;46.934;8.276;2023-02-12T15:35:54;98102.03;;;24.58;19.96
57232;BME280;43488;46.934;8.276;2023-02-12T15:38:39;98102.38;;;24.62;20.24
57232;BME280;43488;46.934;8.276;2023-02-12T15:43:57;98107.72;;;23.05;21.29
57232;BME280;43488;46.934;8.276;2023-02-12T15:46:25;98106.75;;;21.01;23.32
57232;BME280;43488;46.934;8.276;2023-02-12T15:48:53;98112.94;;;19.42;25.46